Barbados Meteorological Services
Auto gathered TAF list
Powered by Apparatus software
For Flight DE3745
Contact Number 1-(246)-535-0021/2/3/4/5/6
WEB: http://www.barbadosweather.org

**********************************************

2019/12/10 18:19
TAF TBPB 101700Z 1018/1118 09023KT 9999 SCT018 PROB30
TEMPO 1100/1106 09022G32KT SHRA BKN014 PROB30
TEMPO 1114/1118 SHRA BKN014


**********************************************
2019/12/10 18:59
TAF TAPA 101700Z 1018/1118 09013KT 9999 SCT018 PROB30
TEMPO 1018/1106 SHRA PROB40
TEMPO 1106/1118 SHRA


**********************************************
2019/12/10 18:18
TAF LPPR 101700Z 1018/1118 17008KT 9999 FEW015
BECMG 1018/1021 SCT012 BKN030
BECMG 1021/1024 6000 -RA SCT004 BKN010
TEMPO 1100/1103 2000 DZRA BR SCT002 BKN004
BECMG 1103/1106 33012KT 9999 NSW FEW015
TEMPO 1106/1115 33015G25KT


**********************************************
2019/12/10 18:18
TAF LPPD 101700Z 1018/1118 02015KT 9999 SCT015 BKN045
TEMPO 1018/1021 02018G30KT SCT018
BECMG 1021/1024 04013KT SCT020
TEMPO 1100/1109 04015G25KT
BECMG 1112/1114 07010KT


**********************************************
2019/12/10 18:18
TAF LPLA 101705Z 1018/1118 33015KT 9999 SCT020 BKN035 PROB30
TEMPO 1018/1103 34018G28KT
BECMG 1104/1106 04010KT FEW020
BECMG 1116/1118 VRB05KT


**********************************************
2019/12/10 18:18
TAF TAF LPAZ 101700Z 1018/1124 03018KT 9999 SCT020 BKN030
TEMPO 1018/1106 03018G30KT
BECMG 1100/1103 SCT025
BECMG 1106/1109 06015KT
BECMG 1118/1121 06008KT


**********************************************
2019/12/10 18:27
TAF LEVT 101700Z 1018/1118 20009KT 9999 SCT030 TX10/1114Z TNM00/1105Z
BECMG 1106/1109 30010KT
TEMPO 1104/1112 3000 RA BKN010


**********************************************
2019/12/10 19:52
TAF
AMD LEMD 101937Z 1019/1124 VRB05KT 6000 NSC TX10/1115Z TN02/1106Z
TEMPO 1019/1110 3000 BR
TEMPO 1019/1109 0300 BCFG BKN003 PROB40
TEMPO 1104/1109 0100 FG VV001 PROB30
TEMPO 1109/1112 2000 RA BR BKN014


**********************************************
2019/12/10 18:27
TAF TAF ELLX 101700Z 1018/1124 18007KT 8000 BKN006
BECMG 1100/1102 18012KT 2500 -RA BR BKN003
TEMPO 1106/1110 RASN
BECMG 1112/1114 21007KT 9999 NSW BKN008
BECMG 1122/1124 24012KT 5000 RASN BKN003


**********************************************
2019/12/10 18:06
TAF EGPK 101701Z 1018/1118 25017KT 9999 SCT035 PROB30
TEMPO 1018/1118 26022G35KT 6000 SHRA BKN014CB


**********************************************
2019/12/10 18:06
TAF TAF EGLL 101704Z 1018/1124 20018G35KT 8000 -RA BKN012
TEMPO 1018/1022 4000 RADZ PROB30
TEMPO 1018/1021 +RA BKN008
BECMG 1019/1022 26008KT CAVOK
TEMPO 1019/1021 25015G28KT PROB30 1106/1110 8000
TEMPO 1114/1118 6000 SHRA BKN012CB PROB30
TEMPO 1114/1116 4000 +SHRAGS


**********************************************
2019/12/10 21:36
TAF
AMD EGKK 102126Z 1021/1124 21018G28KT 9999 BKN012
BECMG 1021/1024 27014KT FEW030
TEMPO 1021/1022 7000 RADZ BKN007
BECMG 1103/1107 21009KT
TEMPO 1114/1119 6000 SHRA PROB40
TEMPO 1115/1118 3000 +SHRA SHRAGS BKN012CB
BECMG 1116/1119 27010KT


**********************************************
2019/12/10 18:09
TAF EGFF 101658Z 1018/1118 20015KT 9999 BKN020
BECMG 1018/1019 27022G32KT PROB30
TEMPO 1018/1020 3500 +RA BKN008
BECMG 1020/1023 28012KT CAVOK
TEMPO 1104/1118 6000 SHRA
BECMG 1106/1109 22010KT PROB30
TEMPO 1111/1116 4000 +SHRAGS BKN009CB
BECMG 1112/1115 28009KT


**********************************************
2019/12/10 18:15
TAF TAF EGCC 101708Z 1018/1124 26026G42KT 3000 +RA BKN007
BECMG 1018/1020 25012KT 9999 NSW FEW030
BECMG 1020/1023 19009KT PROB30
TEMPO 1020/1110 7000 SHRA
TEMPO 1110/1118 6000 SHRA BKN010
BECMG 1113/1116 25010KT PROB40
TEMPO 1118/1124 BKN010


**********************************************
2019/12/10 18:28
TAF EDDF 101700Z 1018/1124 18006KT 9999 SCT015
BECMG 1103/1106 BKN030 PROB30
TEMPO 1103/1107 4500 -SNRA PROB30
TEMPO 1107/1111 RA
TEMPO 1111/1118 4000 SNRA BKN009
TEMPO 1118/1124 4000 -DZ BR BKN004


**********************************************
2019/12/10 18:33
TAF TAF EBBR 101710Z 1018/1124 19015KT CAVOK
TEMPO 1018/1104 19017G28KT
BECMG 1022/1124 SCT008 BKN012
TEMPO 1104/1107 4000 RA BKN008
BECMG 1108/1110 24007KT SCT018 BKN040 PROB30
TEMPO 1123/1124 4000 SHRA BKN010 SCT012TCU


**********************************************